Time;durP1;ratioP1;P1;durP2;ratioP2;P2;SDS_P1;SDS_P2;PMS_P1;PMS_P2;Temp;Humidity;BMP_temperature;BMP_pressure;BME280_temperature;BME280_humidity;BME280_pressure;Samples;Min_cycle;Max_cycle;Signal;HPM_P1;HPM_P2
2022/07/08 00:14:56;;;;;;;5.80;1.52;;;14.70;99.90;;;;;;3563921;28;22272;-72
2022/07/08 00:18:18;;;;;;;6.70;1.92;;;14.70;99.90;;;;;;5079907;28;20131;-73
2022/07/08 00:21:40;;;;;;;6.85;1.50;;;14.70;99.90;;;;;;5112132;28;20137;-73
2022/07/08 00:25:02;;;;;;;8.25;1.80;;;14.70;99.90;;;;;;5110479;28;20100;-72
2022/07/08 00:28:24;;;;;;;6.10;1.33;;;14.70;99.90;;;;;;5115783;28;20042;-72
2022/07/08 00:31:45;;;;;;;8.68;1.77;;;14.60;99.90;;;;;;5106293;28;20061;-72
2022/07/08 00:35:07;;;;;;;7.65;1.63;;;14.60;99.90;;;;;;5095720;28;20042;-72
2022/07/08 00:38:29;;;;;;;11.45;2.72;;;14.60;99.90;;;;;;5106493;28;20480;-73
2022/07/08 00:41:52;;;;;;;6.07;1.63;;;14.60;99.90;;;;;;5100400;28;20046;-72
2022/07/08 00:45:14;;;;;;;7.88;1.55;;;14.60;99.90;;;;;;5094199;28;20055;-72
2022/07/08 00:48:36;;;;;;;5.95;1.60;;;14.60;99.90;;;;;;5090736;28;20089;-72
2022/07/08 00:51:58;;;;;;;7.28;1.55;;;14.60;99.90;;;;;;5098921;28;20051;-72
2022/07/08 00:55:20;;;;;;;7.18;1.55;;;14.60;99.90;;;;;;5110499;28;20070;-72
2022/07/08 00:58:42;;;;;;;8.20;1.67;;;14.60;99.90;;;;;;5097932;28;20092;-72
2022/07/08 01:02:04;;;;;;;7.78;1.90;;;14.50;99.90;;;;;;5110500;28;20096;-72
2022/07/08 01:05:26;;;;;;;8.88;1.67;;;14.50;99.90;;;;;;5112742;28;20092;-72
2022/07/08 01:08:48;;;;;;;6.53;1.58;;;14.40;99.90;;;;;;5093130;28;20097;-72
2022/07/08 01:12:10;;;;;;;9.27;1.92;;;14.40;99.90;;;;;;5098179;28;20047;-72
2022/07/08 01:14:54;;;;;;;4.00;1.50;;;14.30;99.90;;;;;;5080840;28;20055;-72
2022/07/08 01:17:45;;;;;;;4.40;1.45;;;14.20;99.90;;;;;;5093037;28;20439;-72
2022/07/08 01:20:33;;;;;;;8.63;2.35;;;14.20;99.90;;;;;;5091655;28;20054;-72
2022/07/08 01:23:18;;;;;;;8.15;1.75;;;14.10;99.90;;;;;;5077360;28;20047;-72
2022/07/08 01:26:09;;;;;;;7.55;1.60;;;14.00;99.90;;;;;;5093493;28;20042;-72
2022/07/08 01:28:53;;;;;;;4.82;1.42;;;13.90;99.90;;;;;;5093610;28;20039;-73
2022/07/08 01:31:38;;;;;;;9.50;1.63;;;13.80;99.90;;;;;;5105670;28;20071;-72
2022/07/08 01:34:22;;;;;;;9.90;2.17;;;13.80;99.90;;;;;;5094013;28;20050;-73
2022/07/08 01:37:06;;;;;;;4.85;1.40;;;13.70;99.90;;;;;;5094007;28;20035;-72
2022/07/08 01:39:50;;;;;;;5.88;1.70;;;13.70;99.90;;;;;;5100374;28;20129;-72
2022/07/08 01:42:34;;;;;;;8.15;1.60;;;13.60;99.90;;;;;;5082147;28;20396;-72
2022/07/08 01:45:18;;;;;;;8.23;1.30;;;13.60;99.90;;;;;;5093864;28;20066;-72
2022/07/08 01:48:03;;;;;;;5.05;1.20;;;13.60;99.90;;;;;;5110377;28;20076;-72
2022/07/08 01:50:46;;;;;;;7.72;1.70;;;13.60;99.90;;;;;;5109623;28;20491;-72
2022/07/08 01:53:31;;;;;;;7.45;1.80;;;13.60;99.90;;;;;;5093670;28;20516;-72
2022/07/08 01:56:14;;;;;;;8.35;1.63;;;13.60;99.90;;;;;;5107347;28;20038;-72
2022/07/08 01:58:58;;;;;;;7.95;2.05;;;13.60;99.90;;;;;;5088832;28;20054;-72
2022/07/08 02:01:43;;;;;;;8.45;2.10;;;13.60;99.90;;;;;;5092876;28;20572;-72
2022/07/08 02:04:27;;;;;;;7.35;1.80;;;13.60;99.90;;;;;;5101775;28;20038;-72
2022/07/08 02:07:11;;;;;;;7.18;1.67;;;13.60;99.90;;;;;;5093303;28;20088;-72
2022/07/08 02:09:55;;;;;;;5.18;1.60;;;13.50;99.90;;;;;;5093263;28;20830;-72
2022/07/08 02:12:39;;;;;;;6.55;1.80;;;13.50;99.90;;;;;;5093540;28;20089;-72
2022/07/08 02:16:01;;;;;;;6.32;1.42;;;13.40;99.90;;;;;;5102212;28;20054;-72
2022/07/08 02:18:45;;;;;;;10.70;1.90;;;13.30;99.90;;;;;;5095153;28;20062;-72
2022/07/08 02:21:29;;;;;;;6.95;1.42;;;13.20;99.90;;;;;;5107095;28;20347;-72
2022/07/08 02:24:13;;;;;;;7.35;1.75;;;13.10;99.90;;;;;;5088672;28;20116;-72
2022/07/08 02:26:58;;;;;;;6.20;1.60;;;13.10;99.90;;;;;;5088945;28;20043;-72
2022/07/08 02:29:42;;;;;;;10.20;1.95;;;13.00;99.90;;;;;;5095236;28;20037;-72
2022/07/08 02:32:26;;;;;;;7.15;1.70;;;13.00;99.90;;;;;;5098872;28;20043;-72
2022/07/08 02:35:10;;;;;;;10.95;1.92;;;13.00;99.90;;;;;;5077496;28;20081;-72
2022/07/08 02:37:54;;;;;;;8.18;1.70;;;13.00;99.90;;;;;;5094935;28;20041;-72
2022/07/08 02:40:40;;;;;;;6.82;1.70;;;13.00;99.90;;;;;;5085987;28;20181;-72
2022/07/08 02:43:25;;;;;;;7.88;1.60;;;13.00;99.90;;;;;;5111473;28;20082;-72
2022/07/08 02:46:09;;;;;;;7.88;1.90;;;13.00;99.90;;;;;;5095013;28;20093;-73
2022/07/08 02:48:53;;;;;;;8.98;2.25;;;13.10;99.90;;;;;;5102977;28;20085;-73
2022/07/08 02:51:38;;;;;;;7.07;2.03;;;13.10;99.90;;;;;;5097889;28;20051;-72
2022/07/08 02:54:22;;;;;;;7.07;1.88;;;13.10;99.90;;;;;;5083673;28;20509;-73
2022/07/08 02:57:06;;;;;;;6.93;1.77;;;13.10;99.90;;;;;;5091795;28;20059;-73
2022/07/08 02:59:50;;;;;;;7.43;1.80;;;13.00;99.90;;;;;;5092341;28;20047;-72
2022/07/08 03:02:35;;;;;;;8.38;2.05;;;13.00;99.90;;;;;;5095838;28;20460;-72
2022/07/08 03:05:18;;;;;;;5.95;1.63;;;13.00;99.90;;;;;;5091143;28;20080;-72
2022/07/08 03:08:03;;;;;;;9.57;2.15;;;13.00;99.90;;;;;;5076219;28;20067;-72
2022/07/08 03:10:49;;;;;;;5.22;1.45;;;12.90;99.90;;;;;;5093036;28;20039;-72
2022/07/08 03:13:35;;;;;;;9.55;2.40;;;12.90;99.90;;;;;;5102504;28;20050;-72
2022/07/08 03:16:19;;;;;;;8.75;2.00;;;12.90;99.90;;;;;;5091775;28;20120;-72
2022/07/08 03:19:41;;;;;;;5.95;1.90;;;12.90;99.90;;;;;;5093442;28;20039;-72
2022/07/08 03:23:03;;;;;;;8.18;2.13;;;12.90;99.90;;;;;;5092228;28;20046;-72
2022/07/08 03:26:26;;;;;;;8.38;1.83;;;12.90;99.90;;;;;;5094251;28;20039;-73
2022/07/08 03:29:48;;;;;;;8.60;1.63;;;12.90;99.90;;;;;;5107667;28;20061;-73
2022/07/08 03:33:09;;;;;;;6.22;1.80;;;12.90;99.90;;;;;;5094327;28;20038;-72
2022/07/08 03:36:31;;;;;;;8.90;1.92;;;12.80;99.90;;;;;;5091875;28;20487;-72
2022/07/08 03:39:54;;;;;;;9.80;1.92;;;12.80;99.90;;;;;;5077405;28;20113;-73
2022/07/08 03:43:16;;;;;;;9.70;2.20;;;12.80;99.90;;;;;;5085582;28;20050;-72
2022/07/08 03:46:38;;;;;;;6.50;2.10;;;12.70;99.90;;;;;;5099885;28;20491;-72
2022/07/08 03:50:00;;;;;;;7.13;2.03;;;12.70;99.90;;;;;;5087170;28;20043;-72
2022/07/08 03:53:22;;;;;;;9.95;2.28;;;12.70;99.90;;;;;;5098104;28;20686;-72
2022/07/08 03:56:44;;;;;;;8.50;2.28;;;12.70;99.90;;;;;;5096304;28;20080;-72
2022/07/08 04:00:07;;;;;;;7.57;2.33;;;12.60;99.90;;;;;;5100630;28;20047;-73
2022/07/08 04:03:29;;;;;;;6.40;2.13;;;12.70;99.90;;;;;;5089906;28;20066;-72
2022/07/08 04:06:51;;;;;;;7.25;1.90;;;12.70;99.90;;;;;;5096752;28;20034;-73
2022/07/08 04:10:13;;;;;;;8.93;1.92;;;12.70;99.90;;;;;;5085813;28;20055;-72
2022/07/08 04:13:37;;;;;;;7.15;2.45;;;12.60;99.90;;;;;;5100299;28;20054;-73
2022/07/08 04:16:59;;;;;;;6.15;2.38;;;12.70;99.90;;;;;;5092423;28;20050;-73
2022/07/08 04:19:43;;;;;;;4.57;1.83;;;12.80;99.90;;;;;;5101417;28;20109;-73
2022/07/08 04:22:27;;;;;;;6.57;2.30;;;12.80;99.90;;;;;;5105414;28;20078;-72
2022/07/08 04:25:11;;;;;;;8.55;2.67;;;12.80;99.90;;;;;;5101445;28;21720;-73
2022/07/08 04:27:55;;;;;;;6.88;2.72;;;12.90;99.90;;;;;;5094283;28;20146;-73
2022/07/08 04:30:39;;;;;;;10.55;2.80;;;12.90;99.90;;;;;;5100693;28;20046;-73
2022/07/08 04:33:24;;;;;;;8.13;2.35;;;12.90;99.90;;;;;;5104864;28;20571;-73
2022/07/08 04:36:08;;;;;;;10.88;2.70;;;13.00;99.90;;;;;;5095096;28;20035;-72
2022/07/08 04:38:52;;;;;;;7.78;2.63;;;13.00;99.90;;;;;;5096006;28;20068;-72
2022/07/08 04:41:37;;;;;;;8.55;2.63;;;13.10;99.90;;;;;;5096203;28;20435;-72
2022/07/08 04:44:21;;;;;;;4.75;2.83;;;13.10;99.90;;;;;;5095336;28;20449;-72
2022/07/08 04:47:06;;;;;;;8.45;2.60;;;13.10;99.90;;;;;;5102545;28;20122;-72
2022/07/08 04:49:50;;;;;;;7.72;2.70;;;13.20;99.90;;;;;;5101429;28;20043;-73
2022/07/08 04:52:34;;;;;;;9.00;2.75;;;13.20;99.90;;;;;;5099649;28;20039;-72
2022/07/08 04:55:30;;;;;;;5.97;1.98;;;13.30;99.90;;;;;;5110473;28;20115;-73
2022/07/08 04:58:15;;;;;;;7.93;2.10;;;13.30;99.90;;;;;;5093409;28;20038;-72
2022/07/08 05:00:59;;;;;;;7.57;2.28;;;13.50;99.90;;;;;;5098813;28;20602;-73
2022/07/08 05:03:43;;;;;;;8.95;2.40;;;13.70;99.90;;;;;;5107024;28;20039;-73
2022/07/08 05:06:28;;;;;;;8.48;2.80;;;14.00;99.90;;;;;;5094659;28;20043;-73
2022/07/08 05:09:12;;;;;;;11.60;2.38;;;14.20;99.90;;;;;;5100323;28;20482;-72
2022/07/08 05:11:56;;;;;;;8.50;2.63;;;14.50;99.90;;;;;;5111850;28;20042;-73
2022/07/08 05:14:40;;;;;;;8.05;2.30;;;14.70;99.90;;;;;;5114028;28;20058;-72
2022/07/08 05:17:24;;;;;;;9.55;2.63;;;14.90;99.90;;;;;;5101286;28;20054;-72
2022/07/08 05:20:46;;;;;;;8.38;2.42;;;15.10;99.90;;;;;;5098199;28;20078;-72
2022/07/08 05:24:08;;;;;;;6.05;2.17;;;15.30;99.90;;;;;;5077265;28;20112;-72
2022/07/08 05:27:30;;;;;;;8.82;2.95;;;15.50;99.90;;;;;;5095072;28;20047;-72
2022/07/08 05:30:52;;;;;;;8.38;2.58;;;15.70;99.90;;;;;;5090760;28;20115;-72
2022/07/08 05:34:14;;;;;;;8.00;2.08;;;15.80;99.90;;;;;;5113447;28;20066;-72
2022/07/08 05:37:38;;;;;;;4.72;1.65;;;15.90;99.90;;;;;;5105434;28;20047;-72
2022/07/08 05:41:00;;;;;;;10.27;2.20;;;16.00;99.90;;;;;;5092791;28;20055;-72
2022/07/08 05:44:22;;;;;;;8.32;2.03;;;15.90;99.90;;;;;;5094142;28;20055;-72
2022/07/08 05:47:44;;;;;;;8.95;1.90;;;15.90;99.90;;;;;;5093815;28;20048;-72
2022/07/08 05:51:06;;;;;;;6.23;1.60;;;16.00;99.90;;;;;;5093685;28;20078;-72
2022/07/08 05:54:27;;;;;;;11.38;1.80;;;16.30;99.90;;;;;;5096182;28;20296;-72
2022/07/08 05:57:49;;;;;;;7.93;2.42;;;17.70;99.90;;;;;;5092026;28;20074;-72
2022/07/08 06:01:12;;;;;;;8.57;1.98;;;19.00;99.90;;;;;;5096236;28;20469;-72
2022/07/08 06:04:34;;;;;;;6.82;1.95;;;20.10;99.90;;;;;;5092753;28;20061;-72
2022/07/08 06:07:56;;;;;;;8.23;1.88;;;22.20;99.90;;;;;;5099105;28;20042;-72
2022/07/08 06:11:18;;;;;;;6.13;1.92;;;23.10;96.90;;;;;;5101755;28;20050;-72
2022/07/08 06:14:40;;;;;;;6.03;1.50;;;22.40;97.10;;;;;;5111714;28;20062;-72
2022/07/08 06:18:02;;;;;;;17.98;2.08;;;21.60;96.00;;;;;;5095161;28;20082;-72
2022/07/08 06:20:46;;;;;;;;;;;21.00;97.60;;;;;;5104467;28;20144;-72
2022/07/08 06:23:31;;;;;;;6.65;2.00;;;20.60;98.30;;;;;;5104595;28;20415;-72
2022/07/08 06:26:17;;;;;;;6.45;1.58;;;20.30;99.10;;;;;;5096705;28;20085;-72
2022/07/08 06:29:01;;;;;;;8.57;2.05;;;20.00;99.90;;;;;;5112232;28;20514;-72
2022/07/08 06:32:04;;;;;;;7.38;1.55;;;19.70;99.90;;;;;;5090527;28;20047;-72
2022/07/08 06:34:49;;;;;;;12.82;2.13;;;19.30;99.90;;;;;;5092617;28;20082;-73
2022/07/08 06:37:32;;;;;;;11.88;2.33;;;19.40;99.90;;;;;;5101729;28;20037;-73
2022/07/08 06:40:17;;;;;;;8.60;2.20;;;19.30;99.90;;;;;;5102624;28;20050;-73
2022/07/08 06:43:01;;;;;;;10.82;1.73;;;19.40;99.90;;;;;;5107217;28;20057;-73
2022/07/08 06:45:46;;;;;;;8.25;1.60;;;19.30;99.90;;;;;;5106886;28;20084;-72
2022/07/08 06:48:30;;;;;;;7.88;1.90;;;19.20;99.90;;;;;;5092643;28;20043;-73
2022/07/08 06:51:14;;;;;;;8.40;1.70;;;19.10;99.90;;;;;;5098566;28;21731;-73
2022/07/08 06:57:09;;;;;;;6.82;2.53;;;19.20;99.90;;;;;;5102674;28;20089;-72
2022/07/08 06:59:54;;;;;;;;;;;19.20;99.90;;;;;;5113264;28;20116;-72
2022/07/08 07:02:38;;;;;;;6.18;1.70;;;19.20;99.90;;;;;;5103864;28;19918;-72
2022/07/08 07:05:22;;;;;;;9.05;1.80;;;19.40;99.90;;;;;;5076823;28;20085;-72
2022/07/08 07:08:06;;;;;;;6.97;2.15;;;19.50;99.90;;;;;;5076807;28;20119;-72
2022/07/08 07:10:50;;;;;;;8.15;1.67;;;19.50;99.90;;;;;;5091743;28;20039;-72
2022/07/08 07:13:34;;;;;;;8.07;1.92;;;19.50;99.90;;;;;;5109198;28;20104;-72
2022/07/08 07:16:18;;;;;;;6.28;1.35;;;19.70;99.90;;;;;;5111884;28;20058;-72
2022/07/08 07:19:03;;;;;;;8.25;1.73;;;19.70;99.90;;;;;;5103503;28;20058;-72
2022/07/08 07:21:47;;;;;;;9.57;1.95;;;19.60;99.90;;;;;;5099098;28;20043;-72
2022/07/08 07:24:31;;;;;;;7.32;1.63;;;19.60;99.90;;;;;;5093912;28;20071;-72
2022/07/08 07:27:15;;;;;;;6.90;2.03;;;19.50;99.90;;;;;;5100874;28;20074;-72
2022/07/08 07:29:59;;;;;;;6.85;1.60;;;19.40;99.90;;;;;;5107636;28;20439;-72
2022/07/08 07:32:43;;;;;;;6.95;1.45;;;19.50;99.90;;;;;;5110403;28;20092;-72
2022/07/08 07:35:27;;;;;;;8.32;1.92;;;19.50;99.90;;;;;;5105164;28;20140;-72
2022/07/08 07:41:20;;;;;;;7.50;1.70;;;19.50;99.90;;;;;;5107192;28;20056;-71
2022/07/08 07:44:05;;;;;;;5.70;1.60;;;19.50;99.90;;;;;;5102013;28;20050;-71
2022/07/08 07:46:49;;;;;;;7.55;2.15;;;19.70;99.90;;;;;;5105049;28;20049;-71
2022/07/08 07:49:33;;;;;;;5.40;1.48;;;19.80;99.90;;;;;;5109154;28;20086;-71
2022/07/08 07:52:17;;;;;;;6.53;1.83;;;19.90;99.90;;;;;;5106962;28;20134;-71
2022/07/08 07:55:01;;;;;;;5.50;1.70;;;19.90;99.90;;;;;;5111598;28;20042;-71
2022/07/08 07:57:47;;;;;;;9.10;1.52;;;19.90;99.90;;;;;;5111382;28;20049;-71
2022/07/08 08:00:31;;;;;;;6.50;1.90;;;19.90;99.90;;;;;;5110524;28;20099;-72
2022/07/08 08:03:15;;;;;;;9.05;1.90;;;19.70;99.90;;;;;;5097154;28;20039;-71
2022/07/08 08:06:00;;;;;;;7.13;1.60;;;19.60;99.90;;;;;;5110687;28;20038;-71
2022/07/08 08:08:44;;;;;;;6.53;1.77;;;19.60;99.90;;;;;;5103178;28;20066;-71
2022/07/08 08:11:28;;;;;;;8.50;1.85;;;19.60;99.90;;;;;;5109604;28;20084;-71
2022/07/08 08:14:12;;;;;;;7.88;1.77;;;19.50;99.90;;;;;;5110416;28;20476;-71
2022/07/08 08:16:56;;;;;;;4.65;1.60;;;19.60;99.90;;;;;;5110385;28;20127;-71
2022/07/08 08:19:40;;;;;;;5.70;1.85;;;19.60;99.90;;;;;;5094911;28;20034;-71
2022/07/08 08:22:24;;;;;;;6.07;1.70;;;19.60;99.90;;;;;;5110336;28;20046;-71
2022/07/08 08:25:08;;;;;;;6.95;1.77;;;19.70;99.90;;;;;;5109395;28;20062;-71
2022/07/08 08:27:53;;;;;;;7.45;1.90;;;19.80;99.90;;;;;;5110775;28;20384;-71
2022/07/08 08:30:38;;;;;;;10.55;2.40;;;19.90;99.90;;;;;;5104720;28;20040;-71
2022/07/08 08:33:22;;;;;;;7.10;1.90;;;19.90;99.90;;;;;;5114040;28;20419;-71
2022/07/08 08:36:06;;;;;;;9.05;2.30;;;19.90;99.90;;;;;;5103333;28;20463;-71
2022/07/08 08:38:50;;;;;;;10.82;2.63;;;19.90;99.90;;;;;;5110496;28;20043;-71
2022/07/08 08:41:35;;;;;;;4.60;1.80;;;19.90;99.90;;;;;;5111092;28;20046;-71
2022/07/08 08:44:19;;;;;;;6.25;1.73;;;19.90;99.90;;;;;;5114724;28;20105;-71
2022/07/08 08:47:41;;;;;;;5.32;2.05;;;19.80;99.90;;;;;;5112645;28;20512;-71
2022/07/08 08:51:03;;;;;;;8.77;2.10;;;19.70;99.90;;;;;;5104116;28;20081;-71
2022/07/08 08:54:24;;;;;;;6.38;2.00;;;19.60;99.90;;;;;;5125477;27;20435;-71
2022/07/08 08:57:46;;;;;;;8.75;2.20;;;19.80;99.90;;;;;;5113366;28;20089;-71
2022/07/08 09:01:08;;;;;;;7.82;2.33;;;19.90;99.90;;;;;;5107191;28;20078;-71
2022/07/08 09:04:31;;;;;;;5.07;1.85;;;19.90;99.90;;;;;;5112635;28;20046;-71
2022/07/08 09:07:53;;;;;;;5.45;1.80;;;20.10;99.90;;;;;;5101394;28;20050;-71
2022/07/08 09:11:17;;;;;;;6.70;1.70;;;20.10;99.90;;;;;;5104704;28;20039;-71
2022/07/08 09:14:39;;;;;;;6.63;1.88;;;20.30;99.90;;;;;;5106291;28;20035;-72
2022/07/08 09:18:01;;;;;;;7.55;1.80;;;20.60;99.90;;;;;;5108313;28;20042;-72
2022/07/08 09:21:23;;;;;;;45.85;5.40;;;20.70;99.90;;;;;;5110779;28;20053;-71
2022/07/08 09:24:45;;;;;;;12.27;2.65;;;20.80;99.90;;;;;;5108984;28;20037;-71
2022/07/08 09:28:07;;;;;;;9.05;2.42;;;20.80;99.90;;;;;;5109878;28;20058;-74
2022/07/08 09:31:11;;;;;;;;;;;20.90;99.90;;;;;;5111188;28;20042;-73
2022/07/08 09:34:32;;;;;;;8.15;2.08;;;21.10;99.90;;;;;;5108164;28;19962;-72
2022/07/08 09:37:54;;;;;;;8.00;1.88;;;21.40;99.90;;;;;;5108434;28;20034;-72
2022/07/08 09:41:17;;;;;;;10.30;2.08;;;21.60;99.90;;;;;;5112628;28;20042;-72
2022/07/08 09:44:39;;;;;;;6.93;2.05;;;21.70;99.90;;;;;;5109292;28;20077;-71
2022/07/08 09:48:01;;;;;;;6.00;2.25;;;21.70;99.90;;;;;;5102444;28;20098;-71
2022/07/08 09:51:23;;;;;;;7.80;2.45;;;21.70;99.90;;;;;;5104661;28;20495;-72
2022/07/08 09:54:45;;;;;;;6.05;1.70;;;21.70;99.90;;;;;;5109087;28;20598;-71
2022/07/08 09:58:07;;;;;;;7.32;2.10;;;21.60;99.90;;;;;;5097120;28;20035;-71
2022/07/08 10:01:29;;;;;;;4.47;1.58;;;21.60;99.90;;;;;;5095293;28;20059;-72
2022/07/08 10:04:51;;;;;;;6.85;1.80;;;21.60;99.80;;;;;;5100693;28;20088;-71
2022/07/08 10:07:54;;;;;;;;;;;21.60;99.90;;;;;;5112449;28;20413;-71
2022/07/08 10:11:16;;;;;;;6.45;2.00;;;21.50;99.90;;;;;;5095937;28;19952;-70
2022/07/08 10:14:38;;;;;;;8.00;2.17;;;21.80;99.90;;;;;;5098769;28;20030;-70
2022/07/08 10:18:00;;;;;;;11.50;4.70;;;21.80;99.90;;;;;;5098790;28;20535;-70
2022/07/08 10:21:23;;;;;;;7.10;2.35;;;21.80;99.90;;;;;;5107581;28;20035;-69
2022/07/08 10:24:45;;;;;;;5.20;2.10;;;21.90;99.70;;;;;;5112576;28;20097;-70
2022/07/08 10:28:07;;;;;;;6.75;2.10;;;21.90;99.90;;;;;;5105144;28;20172;-70
2022/07/08 10:31:29;;;;;;;6.32;1.65;;;22.10;99.70;;;;;;5109646;28;20049;-70
2022/07/08 10:34:51;;;;;;;4.68;1.95;;;22.30;99.90;;;;;;5106221;28;20104;-70
2022/07/08 10:38:13;;;;;;;7.43;2.08;;;22.50;99.20;;;;;;5099212;28;20030;-70
2022/07/08 10:41:35;;;;;;;6.00;2.20;;;22.70;99.10;;;;;;5105847;28;20034;-70
2022/07/08 10:44:57;;;;;;;4.70;2.03;;;22.80;98.80;;;;;;5097328;28;20088;-70
2022/07/08 10:48:19;;;;;;;5.70;1.85;;;23.00;98.80;;;;;;5103712;28;20071;-70
2022/07/08 10:51:41;;;;;;;6.22;2.08;;;23.20;98.30;;;;;;5106564;28;20030;-70
2022/07/08 10:55:04;;;;;;;5.00;1.80;;;23.20;98.70;;;;;;5105157;27;20077;-70
2022/07/08 10:58:26;;;;;;;5.40;1.85;;;23.20;98.20;;;;;;5111095;28;20520;-70
2022/07/08 11:01:48;;;;;;;5.50;2.30;;;23.20;98.40;;;;;;5093297;28;20047;-70
2022/07/08 11:05:11;;;;;;;5.10;2.03;;;23.20;98.70;;;;;;5093348;28;20165;-70
2022/07/08 11:08:33;;;;;;;7.55;2.22;;;23.30;98.20;;;;;;5110283;28;20400;-70
2022/07/08 11:11:55;;;;;;;9.05;2.50;;;23.30;98.50;;;;;;5112209;28;20545;-71
2022/07/08 11:15:17;;;;;;;6.95;1.95;;;23.50;97.80;;;;;;5112384;28;20392;-70
2022/07/08 11:18:39;;;;;;;5.47;1.85;;;23.60;97.70;;;;;;5105956;28;20380;-70
2022/07/08 11:22:01;;;;;;;6.50;2.15;;;23.80;97.80;;;;;;5112256;28;20043;-71
2022/07/08 11:25:23;;;;;;;7.47;2.20;;;24.00;97.30;;;;;;5109804;28;20383;-70
2022/07/08 11:28:26;;;;;;;;;;;24.30;96.40;;;;;;5103777;28;20100;-70
2022/07/08 11:31:48;;;;;;;9.13;2.28;;;24.30;96.20;;;;;;5109732;28;20347;-71
2022/07/08 11:34:51;;;;;;;;;;;24.40;97.00;;;;;;5107619;28;20055;-78
2022/07/08 11:38:13;;;;;;;6.35;2.28;;;24.50;97.70;;;;;;5092971;28;20299;-78
2022/07/08 11:41:35;;;;;;;4.70;1.80;;;24.70;96.00;;;;;;5099689;28;20074;-78
2022/07/08 11:44:57;;;;;;;5.00;1.58;;;24.80;95.70;;;;;;5103624;28;20078;-77
2022/07/08 11:47:42;;;;;;;;;;;24.80;95.80;;;;;;5093403;28;20054;-78
2022/07/08 11:50:26;;;;;;;7.85;2.10;;;24.70;95.80;;;;;;5100206;28;20372;-79
2022/07/08 11:53:23;;;;;;;6.78;1.98;;;24.90;95.50;;;;;;5113237;28;20047;-78
2022/07/08 11:56:08;;;;;;;4.78;1.60;;;24.80;95.70;;;;;;5112974;28;20047;-77
2022/07/08 11:58:53;;;;;;;6.65;3.40;;;24.70;95.60;;;;;;5110427;28;20055;-78
2022/07/08 12:01:38;;;;;;;5.55;2.47;;;24.70;95.40;;;;;;5103696;28;20585;-78
2022/07/08 12:04:23;;;;;;;7.55;1.98;;;24.70;95.10;;;;;;5116799;28;20548;-78
2022/07/08 12:07:20;;;;;;;3.33;1.60;;;24.50;95.30;;;;;;5100337;28;20031;-79
2022/07/08 12:10:05;;;;;;;4.70;1.65;;;24.60;95.50;;;;;;5116596;28;20039;-78
2022/07/08 12:12:56;;;;;;;6.28;2.72;;;24.40;95.50;;;;;;5114928;28;20385;-76
2022/07/08 12:15:41;;;;;;;6.55;3.85;;;24.30;96.20;;;;;;5116188;28;20038;-77
2022/07/08 12:18:25;;;;;;;5.72;4.38;;;24.50;95.80;;;;;;5102202;28;20364;-77
2022/07/08 12:21:21;;;;;;;6.20;2.35;;;24.50;95.80;;;;;;5116405;28;20038;-77
2022/07/08 12:24:06;;;;;;;4.53;2.10;;;24.50;96.10;;;;;;5101466;28;20039;-77
2022/07/08 12:26:54;;;;;;;5.95;2.05;;;24.50;96.00;;;;;;5115011;28;20376;-78
2022/07/08 12:40:43;;;;;;;7.28;2.28;;;24.40;96.30;;;;;;5115609;28;20035;-77
2022/07/08 12:43:32;;;;;;;8.88;3.55;;;24.40;96.70;;;;;;5094530;28;20066;-80
2022/07/08 12:46:16;;;;;;;5.47;2.88;;;24.50;96.60;;;;;;5094879;28;20077;-77
2022/07/08 12:48:41;;;;;;;6.10;2.42;;;24.60;96.60;;;;;;5103343;28;20043;-77
2022/07/08 12:51:07;;;;;;;5.90;2.10;;;24.60;96.50;;;;;;5095969;28;20654;-75
2022/07/08 12:53:33;;;;;;;11.73;7.07;;;24.80;96.60;;;;;;5111636;28;20040;-74
2022/07/08 12:56:36;;;;;;;8.02;2.65;;;24.80;96.50;;;;;;5106448;28;20050;-74
2022/07/08 12:59:39;;;;;;;;;;;24.20;96.70;;;;;;5109450;28;20050;-74
2022/07/08 13:03:01;;;;;;;7.38;2.20;;;24.20;96.90;;;;;;5114273;28;19961;-74
2022/07/08 13:06:04;;;;;;;;;;;24.30;96.90;;;;;;5101963;28;20030;-74
2022/07/08 13:09:26;;;;;;;5.25;2.55;;;24.40;96.70;;;;;;5103519;28;19914;-74
2022/07/08 13:12:48;;;;;;;5.90;2.47;;;24.30;96.90;;;;;;5096452;28;20042;-74
2022/07/08 13:15:51;;;;;;;;;;;24.10;97.40;;;;;;5114825;28;20390;-73
2022/07/08 13:19:13;;;;;;;5.85;2.63;;;24.10;97.80;;;;;;5107555;28;19979;-74
2022/07/08 13:22:16;;;;;;;;;;;24.30;97.10;;;;;;5106281;28;20658;-74
2022/07/08 13:25:39;;;;;;;6.20;2.38;;;24.40;97.30;;;;;;5102944;28;19933;-72
2022/07/08 13:29:01;;;;;;;6.05;2.28;;;24.30;98.10;;;;;;5106967;28;20804;-73
2022/07/08 13:32:04;;;;;;;;;;;24.40;97.40;;;;;;5100939;28;20049;-73
2022/07/08 13:35:26;;;;;;;6.40;2.30;;;24.60;97.00;;;;;;5109113;28;19930;-72
2022/07/08 13:38:48;;;;;;;8.43;2.28;;;24.70;97.30;;;;;;5104979;28;20053;-73
2022/07/08 13:41:51;;;;;;;;;;;24.60;97.70;;;;;;5111727;28;20067;-73
2022/07/08 13:45:13;;;;;;;6.05;2.72;;;24.70;97.30;;;;;;5106025;28;19962;-73
2022/07/08 13:52:12;;;;;;;7.68;2.35;;;24.90;96.90;;;;;;5191389;22;20045;-71
2022/07/08 13:55:35;;;;;;;7.63;3.03;;;25.00;96.90;;;;;;5060672;28;20047;-71
2022/07/08 13:58:57;;;;;;;5.28;2.28;;;25.00;97.00;;;;;;5059601;28;21048;-70
2022/07/08 14:02:19;;;;;;;5.50;1.95;;;24.80;96.70;;;;;;5050507;28;20043;-70
2022/07/08 14:05:22;;;;;;;;;;;24.50;96.90;;;;;;5073205;28;20044;-70
2022/07/08 14:08:44;;;;;;;7.07;2.33;;;24.50;97.20;;;;;;5065613;28;20015;-70
2022/07/08 14:11:47;;;;;;;;;;;24.10;97.70;;;;;;5068539;28;20047;-71
2022/07/08 14:15:09;;;;;;;8.15;2.45;;;24.10;97.70;;;;;;5063904;28;20380;-71
2022/07/08 14:18:31;;;;;;;5.78;2.08;;;24.50;99.00;;;;;;5048924;28;20409;-70
2022/07/08 14:21:34;;;;;;;;;;;24.90;97.50;;;;;;5052920;28;20106;-70
2022/07/08 14:24:56;;;;;;;7.00;1.75;;;25.20;95.90;;;;;;5056613;28;20407;-70
2022/07/08 14:28:19;;;;;;;5.35;1.90;;;25.40;97.40;;;;;;5066633;28;20047;-70
2022/07/08 14:31:41;;;;;;;8.90;2.30;;;25.40;96.20;;;;;;5069904;28;20051;-71
2022/07/08 14:34:44;;;;;;;;;;;25.40;95.60;;;;;;5069672;28;20378;-71
2022/07/08 14:38:06;;;;;;;6.45;1.85;;;25.20;95.40;;;;;;5064648;28;20041;-71
2022/07/08 14:41:28;;;;;;;10.48;2.35;;;25.00;96.70;;;;;;5066433;28;20039;-71
2022/07/08 14:44:31;;;;;;;;;;;24.80;97.00;;;;;;5061005;28;20119;-71
2022/07/08 14:47:53;;;;;;;6.88;1.98;;;25.00;96.20;;;;;;5060820;28;19919;-71
2022/07/08 14:51:15;;;;;;;8.50;2.28;;;25.20;96.50;;;;;;5059495;28;20042;-70
2022/07/08 14:54:37;;;;;;;5.85;2.00;;;25.20;96.00;;;;;;5069523;28;20051;-71
2022/07/08 14:58:00;;;;;;;7.43;2.33;;;25.10;97.10;;;;;;5056309;28;20472;-70
2022/07/08 15:01:22;;;;;;;4.38;1.75;;;25.30;96.90;;;;;;5061080;28;20058;-71
2022/07/08 15:04:44;;;;;;;5.45;1.83;;;25.50;96.00;;;;;;5067225;28;20102;-71
2022/07/08 15:08:06;;;;;;;5.97;1.90;;;25.30;96.00;;;;;;5069388;28;20241;-71
2022/07/08 15:11:09;;;;;;;;;;;25.10;96.60;;;;;;5068864;28;20086;-70
2022/07/08 15:14:32;;;;;;;4.05;1.77;;;25.00;96.70;;;;;;5071199;28;20253;-70
2022/07/08 15:17:54;;;;;;;6.85;2.17;;;25.10;97.60;;;;;;5066818;28;20066;-71
2022/07/08 15:20:32;;;;;;;5.22;2.10;;;25.20;96.70;;;;;;5050219;28;20048;-70
2022/07/08 15:22:57;;;;;;;8.25;2.35;;;25.00;96.30;;;;;;5063226;28;20347;-70
2022/07/08 15:25:23;;;;;;;5.72;2.13;;;24.90;96.50;;;;;;5052039;28;20048;-71
2022/07/08 15:27:49;;;;;;;4.68;1.90;;;24.80;96.80;;;;;;5047884;28;20067;-71
2022/07/08 15:30:14;;;;;;;8.05;2.45;;;24.90;96.80;;;;;;5028295;28;20494;-71
2022/07/08 15:32:41;;;;;;;6.25;2.13;;;24.80;97.50;;;;;;5050798;28;20051;-71
2022/07/08 15:35:08;;;;;;;6.22;2.40;;;24.90;97.50;;;;;;5064240;28;20040;-70
2022/07/08 15:37:33;;;;;;;9.10;2.50;;;24.20;98.00;;;;;;5071860;28;20094;-71
2022/07/08 15:40:00;;;;;;;6.97;2.17;;;24.20;98.30;;;;;;5070851;28;20040;-70
2022/07/08 15:42:26;;;;;;;5.38;2.20;;;24.20;97.80;;;;;;5055792;28;20388;-71
2022/07/08 15:44:52;;;;;;;3.53;1.65;;;24.30;97.80;;;;;;5054640;28;20044;-70
2022/07/08 15:47:18;;;;;;;4.50;1.80;;;24.10;97.80;;;;;;5054771;28;20098;-71
2022/07/08 15:49:44;;;;;;;5.68;2.00;;;24.50;97.60;;;;;;5056422;28;20046;-71
2022/07/08 15:52:10;;;;;;;7.40;1.88;;;24.30;97.50;;;;;;5067404;28;20048;-71
2022/07/08 15:54:35;;;;;;;3.05;1.80;;;24.40;97.60;;;;;;5033665;28;20052;-71
2022/07/08 15:57:02;;;;;;;4.72;2.15;;;24.40;97.30;;;;;;5053795;28;20044;-71
2022/07/08 15:59:28;;;;;;;5.57;2.20;;;24.10;98.40;;;;;;5031874;28;20041;-71
2022/07/08 16:01:53;;;;;;;6.47;2.42;;;23.90;98.70;;;;;;5055584;28;20040;-71
2022/07/08 16:04:19;;;;;;;5.30;1.90;;;23.30;99.90;;;;;;5052431;28;20052;-71
2022/07/08 16:06:44;;;;;;;6.53;2.13;;;23.40;99.90;;;;;;5050840;28;20037;-71
2022/07/08 16:09:10;;;;;;;6.68;2.55;;;23.30;99.90;;;;;;5051540;28;20052;-71
2022/07/08 16:11:36;;;;;;;5.15;1.92;;;23.10;99.90;;;;;;5055842;28;20351;-71
2022/07/08 16:14:02;;;;;;;4.15;2.08;;;;;;;;;;5050317;28;20033;-71
2022/07/08 16:16:27;;;;;;;6.18;2.22;;;23.10;99.90;;;;;;5049239;28;20075;-71